Latest Weather Observations for Melbourne (Olympic Park)

IDV60901

Issued at 5:31 pm EST Friday 17 August 2018 (issued every 10 minutes, with the page automatically refreshed every 10 minutes)

About weather observations | Map of Melbourne area stations | Latest observations for Melbourne area | Other Formats
Station Details ID: 086338 Name: MELBOURNE (OLYMPIC PARK) Lat: -37.83 Lon: 144.98 Height: 7.53 m
Data from the previous 72 hours. | See also: Recent months at Melbourne (Olympic Park)
Date/Time
EST
Temp
°C
App
Temp
°C
Dew
Point
°C
Rel
Hum
%
Delta-T
°C
Wind Press
QNH
hPa
Press
MSL
hPa
Rain since
9am
mm
Dir  Spd
km/h
Gust
km/h
Spd
kts
Gust
kts
17/05:30pm 13.6 8.2 2.5 47 4.9 N 20 33 11 18 1009.8 1009.8 0.0
17/05:00pm 14.0 8.6 2.3 45 5.2 N 20 35 11 19 1010.0 1010.0 0.0
17/04:30pm 14.4 8.2 2.3 44 5.3 NNW 24 37 13 20 1010.0 1010.0 0.0
17/04:00pm 14.8 8.6 2.0 42 5.6 NNW 24 33 13 18 1010.1 1010.1 0.0
17/03:30pm 15.0 9.3 2.9 44 5.4 NNW 22 35 12 19 1010.4 1010.4 0.0
17/03:00pm 15.1 9.8 2.0 41 5.8 NNW 19 24 10 13 1010.5 1010.5 0.0
17/02:30pm 14.5 9.2 2.1 43 5.5 NNW 19 35 10 19 1010.7 1010.7 0.0
17/02:00pm 14.5 9.2 1.8 42 5.6 NNW 19 28 10 15 1010.8 1010.8 0.0
17/01:30pm 14.8 10.2 1.7 41 5.7 NNW 15 26 8 14 1011.1 1011.1 0.0
17/01:00pm 15.0 9.9 3.2 45 5.3 NNW 19 32 10 17 1011.6 1011.6 0.0
17/12:30pm 13.9 9.9 3.1 48 4.8 NW 13 24 7 13 1012.0 1012.0 0.0
17/12:00pm 13.7 8.3 2.6 47 4.9 NNW 20 32 11 17 1012.6 1012.6 0.0
17/11:30am 14.1 8.4 3.0 47 5.0 N 22 39 12 21 1012.6 1012.6 0.0
17/11:00am 13.7 8.5 3.5 50 4.6 NNW 20 30 11 16 1013.2 1013.2 0.0
17/10:30am 13.1 7.2 3.7 53 4.2 NNW 24 35 13 19 1013.4 1013.4 0.0
17/10:00am 13.1 9.1 4.8 57 3.8 NNW 15 26 8 14 1013.4 1013.4 0.0
17/09:30am 11.7 7.2 4.2 60 3.4 NNW 17 26 9 14 1013.8 1013.8 0.0
17/09:00am 10.6 7.2 4.1 64 2.9 N 11 19 6 10 1014.0 1014.0 0.0
17/08:30am 10.1 6.4 4.5 68 2.5 N 13 19 7 10 1014.0 1014.0 0.0
17/08:00am 9.8 5.7 4.4 69 2.4 N 15 19 8 10 1014.0 1014.0 0.0
17/07:30am 9.5 5.0 4.1 69 2.4 NNW 17 24 9 13 1013.8 1013.8 0.0
17/07:00am 9.2 5.8 4.2 71 2.2 N 11 17 6 9 1013.6 1013.6 0.0
17/06:30am 9.0 6.0 4.0 71 2.2 N 9 15 5 8 1013.6 1013.6 0.0
17/06:00am 8.5 5.8 3.9 73 2.0 N 7 11 4 6 1013.2 1013.2 0.0
17/05:30am 8.4 6.6 3.7 72 2.0 N 2 7 1 4 1013.2 1013.2 0.0
17/05:00am 8.2 5.7 3.5 72 2.0 N 6 11 3 6 1013.1 1013.1 0.0
17/04:30am 7.7 5.8 3.0 72 2.0 N 2 9 1 5 1013.0 1013.0 0.0
17/04:00am 8.5 5.9 3.1 69 2.3 NNE 6 9 3 5 1013.0 1013.0 0.0
17/03:30am 9.0 6.2 3.2 67 2.5 N 7 11 4 6 1013.2 1013.2 0.0
17/03:00am 8.4 5.8 3.1 69 2.3 N 6 9 3 5 1013.6 1013.6 0.0
17/02:30am 8.3 5.1 3.2 70 2.2 NE 9 11 5 6 1013.6 1013.6 0.0
17/02:00am 8.0 5.4 3.1 71 2.1 SE 6 7 3 4 1013.9 1013.9 0.0
17/01:30am 8.5 6.6 2.9 68 2.4 NNE 2 7 1 4 1013.9 1013.9 0.0
17/01:00am 8.8 5.9 2.8 66 2.5 N 7 11 4 6 1013.8 1013.8 0.0
17/12:30am 10.3 7.0 2.7 59 3.3 NNW 9 15 5 8 1013.8 1013.8 0.0
17/12:00am 10.3 6.2 2.4 58 3.4 NW 13 20 7 11 1014.0 1014.0 0.0
 
Date/Time
EST
Temp
°C
App
Temp
°C
Dew
Point
°C
Rel
Hum
%
Delta-T
°C
Wind Press
QNH
hPa
Press
MSL
hPa
Rain since
9am
mm
Dir  Spd
km/h
Gust
km/h
Spd
kts
Gust
kts
16/11:30pm 10.3 7.0 2.4 58 3.4 NW 9 15 5 8 1013.9 1013.9 0.0
16/11:00pm 9.4 6.5 2.5 62 2.9 N 7 13 4 7 1014.1 1014.1 0.0
16/10:30pm 9.8 6.5 2.4 60 3.1 N 9 13 5 7 1014.2 1014.2 0.0
16/10:00pm 10.5 7.6 2.4 57 3.5 NNW 7 13 4 7 1014.2 1014.2 0.0
16/09:30pm 9.8 8.2 4.6 70 2.3 NW 2 6 1 3 1014.3 1014.3 0.0
16/09:00pm 10.9 7.4 3.7 61 3.2 NW 11 13 6 7 1014.3 1014.3 0.0
16/08:30pm 9.9 8.7 4.5 69 2.4 CALM 0 7 0 4 1014.3 1014.3 0.0
16/08:00pm 9.9 8.6 4.3 68 2.5 CALM 0 7 0 4 1014.2 1014.2 0.0
16/07:30pm 10.8 8.4 4.3 64 2.9 WSW 6 9 3 5 1013.9 1013.9 0.0
16/07:00pm 11.2 9.5 4.2 62 3.1 WSW 2 7 1 4 1013.6 1013.6 0.0
16/06:30pm 12.0 9.4 4.0 58 3.6 SW 7 11 4 6 1013.4 1013.4 0.0
16/06:00pm 12.5 10.1 4.2 57 3.8 SW 6 13 3 7 1013.2 1013.2 0.0
16/05:30pm 13.0 10.3 3.9 54 4.1 WSW 7 13 4 7 1013.0 1013.0 0.0
16/05:00pm 13.4 10.1 4.6 55 4.0 WSW 11 20 6 11 1012.9 1012.9 0.0
16/04:30pm 13.1 10.6 5.0 58 3.7 WSW 7 15 4 8 1012.8 1012.8 0.0
16/04:00pm 13.5 11.0 3.6 51 4.5 WSW 6 13 3 7 1012.8 1012.8 0.0
16/03:30pm 14.0 10.9 3.8 50 4.6 W 9 15 5 8 1012.7 1012.7 0.0
16/03:00pm 13.7 9.7 2.9 48 4.8 W 13 19 7 10 1012.6 1012.6 0.0
16/02:30pm 13.6 10.7 4.5 54 4.2 SSW 9 22 5 12 1012.5 1012.5 0.0
16/02:00pm 14.1 10.5 3.0 47 5.0 W 11 20 6 11 1012.4 1012.4 0.0
16/01:30pm 13.7 10.6 3.5 50 4.6 W 9 17 5 9 1012.4 1012.4 0.0
16/01:00pm 13.5 9.9 3.0 49 4.7 WNW 11 28 6 15 1012.6 1012.6 0.0
16/12:30pm 14.3 11.7 4.0 50 4.7 WSW 7 17 4 9 1012.8 1012.8 0.0
16/12:00pm 13.3 9.9 4.2 54 4.1 WSW 11 22 6 12 1013.2 1013.2 0.0
16/11:30am 13.0 9.1 3.4 52 4.3 SW 13 26 7 14 1013.5 1013.5 0.0
16/11:00am 13.8 10.4 3.9 51 4.5 WSW 11 24 6 13 1013.3 1013.3 0.0
16/10:30am 13.2 10.3 4.4 55 4.0 WNW 9 24 5 13 1013.4 1013.4 0.0
16/10:00am 12.5 9.1 4.2 57 3.8 WNW 11 22 6 12 1013.3 1013.3 0.0
16/09:30am 11.6 7.0 3.9 59 3.4 NW 17 30 9 16 1013.3 1013.3 0.0
16/09:00am 10.8 6.6 4.0 63 3.0 NW 15 24 8 13 1013.0 1013.0 0.2
16/08:30am 9.9 6.1 4.1 67 2.6 NW 13 19 7 10 1012.8 1012.8 0.2
16/08:00am 9.4 5.7 4.2 70 2.3 NW 13 20 7 11 1012.5 1012.5 0.2
16/07:30am 9.1 4.9 3.9 70 2.3 NW 15 20 8 11 1012.2 1012.2 0.2
16/07:00am 9.0 5.2 4.0 71 2.2 NW 13 19 7 10 1011.9 1011.9 0.2
16/06:30am 9.2 5.0 4.0 70 2.3 NW 15 20 8 11 1011.4 1011.4 0.2
16/06:00am 9.2 5.4 4.0 70 2.3 NW 13 19 7 10 1011.3 1011.3 0.2
16/05:30am 9.1 5.3 3.9 70 2.3 NNW 13 20 7 11 1011.0 1011.0 0.2
16/05:00am 9.1 5.6 3.7 69 2.3 NNW 11 17 6 9 1010.7 1010.7 0.2
16/04:30am 9.4 5.6 4.0 69 2.4 NNW 13 20 7 11 1010.5 1010.5 0.2
16/04:00am 9.3 6.3 3.9 69 2.4 NNW 9 15 5 8 1010.2 1010.2 0.2
16/03:30am 9.4 6.3 3.8 68 2.4 NNW 9 15 5 8 1010.3 1010.3 0.2
16/03:00am 9.9 6.5 3.9 66 2.6 NNW 11 20 6 11 1010.3 1010.3 0.2
16/02:30am 10.0 5.8 4.0 66 2.6 NW 15 26 8 14 1010.1 1010.1 0.2
16/02:00am 9.9 6.1 4.1 67 2.6 NNW 13 19 7 10 1010.2 1010.2 0.2
16/01:30am 10.0 6.6 4.0 66 2.6 NW 11 17 6 9 1010.3 1010.3 0.2
16/01:00am 10.4 6.6 3.9 64 2.9 NW 13 26 7 14 1010.2 1010.2 0.2
16/12:30am 10.4 7.0 3.9 64 2.9 WNW 11 24 6 13 1010.1 1010.1 0.2
16/12:00am 10.5 7.1 3.8 63 3.0 NW 11 24 6 13 1009.9 1009.9 0.2
 
Date/Time
EST
Temp
°C
App
Temp
°C
Dew
Point
°C
Rel
Hum
%
Delta-T
°C
Wind Press
QNH
hPa
Press
MSL
hPa
Rain since
9am
mm
Dir  Spd
km/h
Gust
km/h
Spd
kts
Gust
kts
15/11:30pm 10.7 7.3 4.0 63 3.0 NW 11 22 6 12 1009.8 1009.8 0.2
15/11:00pm 11.0 6.8 4.0 62 3.1 NW 15 26 8 14 1009.6 1009.6 0.2
15/10:30pm 11.0 7.6 4.2 63 3.0 NW 11 20 6 11 1009.7 1009.7 0.2
15/10:00pm 11.1 8.1 4.1 62 3.1 WNW 9 19 5 10 1009.4 1009.4 0.2
15/09:30pm 11.5 7.1 4.5 62 3.2 NW 17 33 9 18 1008.9 1008.9 0.2
15/09:00pm 11.3 7.6 4.5 63 3.1 NW 13 20 7 11 1008.9 1008.9 0.2
15/08:30pm 11.1 7.5 4.8 65 2.9 NW 13 22 7 12 1008.8 1008.8 0.2
15/08:00pm 11.0 6.6 4.9 66 2.8 NW 17 28 9 15 1008.6 1008.6 0.2
15/07:30pm 11.1 7.4 6.3 72 2.2 NW 15 26 8 14 1008.3 1008.3 0.2
15/07:00pm 11.9 9.0 4.9 62 3.2 WNW 9 17 5 9 1008.0 1008.0 0.0
15/06:30pm 12.9 10.0 4.6 57 3.8 W 9 17 5 9 1007.5 1007.5 0.0
15/06:00pm 13.1 9.4 4.3 55 4.0 SW 13 30 7 16 1007.1 1007.1 0.0
15/05:30pm 14.1 10.2 3.3 48 4.9 W 13 24 7 13 1006.7 1006.7 0.0
15/05:00pm 14.2 11.1 3.7 49 4.8 W 9 22 5 12 1006.1 1006.1 0.0
15/04:30pm 14.6 10.0 3.7 48 5.0 W 17 33 9 18 1005.9 1005.9 0.0
15/04:00pm 14.8 11.1 4.5 50 4.8 SSW 13 30 7 16 1005.4 1005.4 0.0
15/03:30pm 14.2 11.1 5.6 56 4.1 S 11 22 6 12 1005.2 1005.2 0.0
15/03:00pm 17.0 12.4 1.8 36 6.8 WNW 15 28 8 15 1005.2 1005.2 0.0
15/02:41pm 17.0 11.2 0.2 32 7.3 WNW 20 50 11 27 1004.9 1004.9 0.0
15/02:30pm 17.6 12.9 1.2 33 7.3 W 15 37 8 20 1005.0 1005.0 0.0
15/02:00pm 17.7 12.9 0.4 31 7.6 WNW 15 43 8 23 1004.7 1004.7 0.0
15/01:30pm 17.7 12.1 -0.1 30 7.7 WNW 19 37 10 20 1004.9 1004.9 0.0
15/01:00pm 17.2 11.5 -1.0 29 7.7 WNW 19 37 10 20 1005.0 1005.0 0.0
15/12:30pm 17.6 12.7 -0.6 29 7.8 WNW 15 30 8 16 1005.3 1005.3 0.0
15/12:00pm 16.8 11.7 0.9 34 7.0 WNW 17 32 9 17 1005.6 1005.6 0.0
15/11:30am 17.0 11.6 1.0 34 7.0 NW 19 33 10 18 1005.8 1005.8 0.0
15/11:00am 16.4 11.2 3.5 42 6.0 NW 20 52 11 28 1006.0 1006.0 0.0
15/10:30am 16.1 11.7 4.8 47 5.3 WNW 17 33 9 18 1006.1 1006.1 0.0
15/10:00am 15.4 11.4 5.0 50 4.9 NW 15 33 8 18 1006.2 1006.2 0.0
15/09:30am 14.2 11.2 3.9 50 4.7 NNW 9 15 5 8 1006.3 1006.3 0.0
15/09:00am 13.8 9.6 3.9 51 4.5 NNW 15 20 8 11 1006.2 1006.2 0.0
15/08:30am 12.9 9.3 3.0 51 4.4 N 11 17 6 9 1005.9 1005.9 0.0
15/08:00am 12.4 8.4 2.6 51 4.3 N 13 20 7 11 1005.5 1005.5 0.0
15/07:30am 14.5 10.1 2.7 45 5.3 N 15 30 8 16 1005.4 1005.4 0.0
15/07:00am 14.5 9.7 2.4 44 5.4 N 17 33 9 18 1004.9 1004.9 0.0
15/06:30am 14.4 8.5 1.7 42 5.5 N 22 32 12 17 1004.7 1004.7 0.0
15/06:00am 14.5 8.6 1.4 41 5.7 NNW 22 39 12 21 1004.2 1004.2 0.0
15/05:30am 14.6 9.0 1.2 40 5.8 N 20 33 11 18 1004.1 1004.1 0.0
15/05:00am 14.0 8.4 1.3 42 5.5 N 20 35 11 19 1004.2 1004.2 0.0
15/04:30am 13.9 7.5 1.2 42 5.4 N 24 39 13 21 1004.1 1004.1 0.0
15/04:00am 14.0 7.7 1.3 42 5.5 N 24 41 13 22 1004.6 1004.6 0.0
15/03:30am 13.7 7.8 1.7 44 5.2 N 22 37 12 20 1004.7 1004.7 0.0
15/03:00am 13.5 6.9 2.1 46 5.0 NNW 26 44 14 24 1005.8 1005.8 0.0
15/02:33am 13.4 6.5 2.3 47 4.9 N 28 48 15 26 1005.4 1005.4 0.0
15/02:30am 13.3 6.4 2.5 48 4.7 N 28 41 15 22 1005.6 1005.6 0.0
15/02:09am 13.4 6.5 2.6 48 4.8 N 28 50 15 27 1006.7 1006.7 0.0
15/02:00am 13.1 7.1 3.2 51 4.4 NNW 24 50 13 27 1007.4 1007.4 0.0
15/01:30am 13.1 6.4 3.7 53 4.2 N 28 46 15 25 1007.1 1007.1 0.0
15/01:00am 13.3 5.8 3.7 52 4.3 N 32 54 17 29 1007.7 1007.7 0.0
15/12:45am 13.5 6.8 3.8 52 4.4 N 28 46 15 25 1008.2 1008.2 0.0
15/12:30am 13.5 7.2 3.8 52 4.4 N 26 41 14 22 1008.3 1008.3 0.0
15/12:00am 13.8 6.8 4.1 52 4.4 N 30 54 16 29 1008.5 1008.5 0.0
 
Date/Time
EST
Temp
°C
App
Temp
°C
Dew
Point
°C
Rel
Hum
%
Delta-T
°C
Wind Press
QNH
hPa
Press
MSL
hPa
Rain since
9am
mm
Dir  Spd
km/h
Gust
km/h
Spd
kts
Gust
kts
14/11:33pm 14.2 7.7 4.5 52 4.5 N 28 48 15 26 1009.1 1009.1 0.0
14/11:30pm 14.0 7.9 4.6 53 4.3 N 26 39 14 21 1009.3 1009.3 0.0
14/11:00pm 14.3 7.5 4.9 53 4.4 N 30 52 16 28 1009.5 1009.5 0.0
14/10:30pm 14.3 7.5 5.1 54 4.3 N 30 50 16 27 1010.2 1010.2 0.0
14/10:00pm 14.3 7.9 5.4 55 4.2 N 28 46 15 25 1011.1 1011.1 0.0
14/09:38pm 14.5 8.2 5.6 55 4.2 N 28 56 15 30 1011.4 1011.4 0.0
14/09:30pm 14.5 8.2 5.6 55 4.2 N 28 44 15 24 1011.6 1011.6 0.0
14/09:00pm 14.6 10.0 5.4 54 4.3 N 19 35 10 19 1012.2 1012.2 0.0
14/08:30pm 15.0 9.5 5.8 54 4.4 N 24 43 13 23 1012.6 1012.6 0.0
14/08:00pm 14.7 8.9 6.3 57 4.0 N 26 39 14 21 1012.5 1012.5 0.0
14/07:30pm 14.7 8.6 6.5 58 4.0 N 28 48 15 26 1012.8 1012.8 0.0
14/07:00pm 14.8 8.7 6.4 57 4.1 N 28 46 15 25 1013.3 1013.3 0.0
14/06:35pm 14.8 8.7 6.4 57 4.1 N 28 46 15 25 1013.3 1013.3 0.0
14/06:30pm 14.7 9.3 6.5 58 4.0 N 24 46 13 25 1013.4 1013.4 0.0
14/06:00pm 14.8 8.3 6.6 58 4.0 N 30 44 16 24 1013.3 1013.3 0.0
14/05:49pm 15.1 9.1 6.9 58 4.0 N 28 46 15 25 1013.5 1013.5 0.0

Latest Capital City Observations: Canberra | Sydney | Melbourne | Brisbane | Adelaide | Perth | Hobart | Darwin

Other Formats:

Comma delimited format used in spreadsheet applications
http://www.bom.gov.au/fwo/IDV60901/IDV60901.95936.axf

JavaScript Object Notation format (JSON) in row-major order
http://www.bom.gov.au/fwo/IDV60901/IDV60901.95936.json